Sand Creek, Michigan
Current Conditions -  °F | °C
As of 1:53 AM on Friday 28 Nov 2014 (Local Time) from KADG Reporting Station
Clear Clear  
Wind Chill:   Ceiling: Unl
Heat Index: 18°   Visibility: 10mi
Dew Point: 10°   Wind: 7mph
Humidity: 71%   Direction: 330°NNW
Pressure: 30.33"   Gusts: NA
Location:  41.83°N, 84.1°W
Report Text: KADG 280653Z AUTO 33006KT 10SM CLR M08/M12 A3033 RMK AO2 SLP286 T10781122
Loading
Personal Weather Stations






























Interactive Weather Map New forecast layout! Learn more

10-Day Weather Forecast

Advertisements
Track Severe Weather on mobile